California Conservation Cent, California
Current Conditions -  °F | °C
As of 3:30 AM on Friday 24 Oct 2014 (Local Time) from KAAT Reporting Station
Haze Haze  
Wind Chill: 46°   Ceiling: 7000
Heat Index: 46°   Visibility: 6mi
Dew Point: 44°   Wind: 0mph
Humidity: 93%   Direction: NA
Pressure: 30.05"   Gusts: NA
Location:  40.5172°N, 120.68°W
Report Text: KAAT 241030Z AUTO 00000KT 6SM BR FEW001 OVC070 08/07 A3005 RMK AO2 T00780067
Loading
Personal Weather Stations






























Interactive Weather Map
Tropical Storm Tracking
New forecast layout! Learn more

10-Day Weather Forecast

Advertisements
Track Severe Weather on mobile